sensor_id;sensor_type;location;lat;lon;timestamp;pressure;altitude;pressure_sealevel;temperature;humidity
80323;BME280;69636;52.372;13.610;2023-11-21T00:00:00;100554.75;;;7.61;100.00
80323;BME280;69636;52.372;13.610;2023-11-21T00:02:29;100556.69;;;7.59;100.00
80323;BME280;69636;52.372;13.610;2023-11-21T00:04:56;100564.47;;;7.60;100.00
80323;BME280;69636;52.372;13.610;2023-11-21T00:07:23;100561.44;;;7.65;100.00
80323;BME280;69636;52.372;13.610;2023-11-21T00:09:51;100570.34;;;7.73;100.00
80323;BME280;69636;52.372;13.610;2023-11-21T00:12:18;100565.03;;;7.73;100.00
80323;BME280;69636;52.372;13.610;2023-11-21T00:14:45;100567.28;;;7.78;100.00
80323;BME280;69636;52.372;13.610;2023-11-21T00:17:13;100578.97;;;7.75;100.00
80323;BME280;69636;52.372;13.610;2023-11-21T00:19:41;100583.41;;;7.75;100.00
80323;BME280;69636;52.372;13.610;2023-11-21T00:22:09;100588.97;;;7.72;100.00
80323;BME280;69636;52.372;13.610;2023-11-21T00:24:37;100585.63;;;7.70;100.00
80323;BME280;69636;52.372;13.610;2023-11-21T00:27:05;100587.16;;;7.63;100.00
80323;BME280;69636;52.372;13.610;2023-11-21T00:29:32;100587.00;;;7.64;100.00
80323;BME280;69636;52.372;13.610;2023-11-21T00:31:59;100595.88;;;7.54;100.00
80323;BME280;69636;52.372;13.610;2023-11-21T00:34:27;100593.41;;;7.71;100.00
80323;BME280;69636;52.372;13.610;2023-11-21T00:36:56;100588.41;;;7.68;100.00
80323;BME280;69636;52.372;13.610;2023-11-21T00:39:23;100593.13;;;7.45;100.00
80323;BME280;69636;52.372;13.610;2023-11-21T00:41:52;100593.53;;;7.51;100.00
80323;BME280;69636;52.372;13.610;2023-11-21T00:44:19;100595.88;;;7.34;100.00
80323;BME280;69636;52.372;13.610;2023-11-21T00:46:46;100601.16;;;7.34;100.00
80323;BME280;69636;52.372;13.610;2023-11-21T00:49:14;100609.78;;;7.27;100.00
80323;BME280;69636;52.372;13.610;2023-11-21T00:51:42;100605.84;;;7.21;100.00
80323;BME280;69636;52.372;13.610;2023-11-21T00:54:10;100611.91;;;7.02;100.00
80323;BME280;69636;52.372;13.610;2023-11-21T00:56:38;100609.41;;;7.01;100.00
80323;BME280;69636;52.372;13.610;2023-11-21T00:59:05;100616.63;;;6.99;100.00
80323;BME280;69636;52.372;13.610;2023-11-21T01:01:32;100627.09;;;6.79;100.00
80323;BME280;69636;52.372;13.610;2023-11-21T01:04:00;100629.44;;;6.73;100.00
80323;BME280;69636;52.372;13.610;2023-11-21T01:06:27;100630.94;;;6.66;100.00
80323;BME280;69636;52.372;13.610;2023-11-21T01:08:54;100634.91;;;6.60;100.00
80323;BME280;69636;52.372;13.610;2023-11-21T01:11:23;100637.81;;;6.57;100.00
80323;BME280;69636;52.372;13.610;2023-11-21T01:13:51;100646.38;;;6.70;100.00
80323;BME280;69636;52.372;13.610;2023-11-21T01:16:18;100641.28;;;6.58;100.00
80323;BME280;69636;52.372;13.610;2023-11-21T01:18:45;100651.72;;;6.59;100.00
80323;BME280;69636;52.372;13.610;2023-11-21T01:21:13;100644.56;;;6.50;100.00
80323;BME280;69636;52.372;13.610;2023-11-21T01:23:40;100647.03;;;6.42;100.00
80323;BME280;69636;52.372;13.610;2023-11-21T01:26:07;100643.47;;;6.32;100.00
80323;BME280;69636;52.372;13.610;2023-11-21T01:28:36;100648.50;;;6.35;100.00
80323;BME280;69636;52.372;13.610;2023-11-21T01:31:04;100650.44;;;6.33;100.00
80323;BME280;69636;52.372;13.610;2023-11-21T01:33:31;100648.50;;;6.35;100.00
80323;BME280;69636;52.372;13.610;2023-11-21T01:35:58;100654.16;;;6.30;100.00
80323;BME280;69636;52.372;13.610;2023-11-21T01:38:27;100658.88;;;6.47;100.00
80323;BME280;69636;52.372;13.610;2023-11-21T01:40:54;100662.91;;;6.52;100.00
80323;BME280;69636;52.372;13.610;2023-11-21T01:43:21;100664.31;;;6.35;100.00
80323;BME280;69636;52.372;13.610;2023-11-21T01:45:50;100671.31;;;6.25;100.00
80323;BME280;69636;52.372;13.610;2023-11-21T01:48:18;100674.16;;;6.33;100.00
80323;BME280;69636;52.372;13.610;2023-11-21T01:50:45;100669.59;;;6.35;100.00
80323;BME280;69636;52.372;13.610;2023-11-21T01:53:13;100669.00;;;6.31;100.00
80323;BME280;69636;52.372;13.610;2023-11-21T01:55:41;100668.25;;;6.20;100.00
80323;BME280;69636;52.372;13.610;2023-11-21T01:58:09;100680.66;;;6.29;100.00
80323;BME280;69636;52.372;13.610;2023-11-21T02:00:37;100681.03;;;6.24;100.00
80323;BME280;69636;52.372;13.610;2023-11-21T02:03:06;100681.09;;;6.13;100.00
80323;BME280;69636;52.372;13.610;2023-11-21T02:05:34;100682.75;;;6.14;100.00
80323;BME280;69636;52.372;13.610;2023-11-21T02:08:01;100682.66;;;6.04;100.00
80323;BME280;69636;52.372;13.610;2023-11-21T02:10:28;100681.53;;;5.86;100.00
80323;BME280;69636;52.372;13.610;2023-11-21T02:12:56;100679.69;;;5.98;100.00
80323;BME280;69636;52.372;13.610;2023-11-21T02:15:23;100690.81;;;6.01;100.00
80323;BME280;69636;52.372;13.610;2023-11-21T02:17:51;100688.78;;;6.05;100.00
80323;BME280;69636;52.372;13.610;2023-11-21T02:20:22;100696.38;;;5.87;100.00
80323;BME280;69636;52.372;13.610;2023-11-21T02:22:51;100700.22;;;5.72;100.00
80323;BME280;69636;52.372;13.610;2023-11-21T02:25:19;100701.47;;;5.68;100.00
80323;BME280;69636;52.372;13.610;2023-11-21T02:27:46;100710.63;;;5.73;100.00
80323;BME280;69636;52.372;13.610;2023-11-21T02:30:14;100709.69;;;5.74;100.00
80323;BME280;69636;52.372;13.610;2023-11-21T02:32:42;100712.00;;;5.68;100.00
80323;BME280;69636;52.372;13.610;2023-11-21T02:35:15;100714.16;;;5.63;100.00
80323;BME280;69636;52.372;13.610;2023-11-21T02:37:43;100724.22;;;5.58;100.00
80323;BME280;69636;52.372;13.610;2023-11-21T02:40:12;100719.31;;;5.53;100.00
80323;BME280;69636;52.372;13.610;2023-11-21T02:42:40;100721.81;;;5.55;100.00
80323;BME280;69636;52.372;13.610;2023-11-21T02:45:08;100719.94;;;5.45;100.00
80323;BME280;69636;52.372;13.610;2023-11-21T02:47:35;100716.56;;;5.43;100.00
80323;BME280;69636;52.372;13.610;2023-11-21T02:50:03;100724.94;;;5.37;100.00
80323;BME280;69636;52.372;13.610;2023-11-21T02:52:31;100729.47;;;5.46;100.00
80323;BME280;69636;52.372;13.610;2023-11-21T02:54:58;100736.44;;;5.36;100.00
80323;BME280;69636;52.372;13.610;2023-11-21T02:57:27;100735.72;;;5.34;100.00
80323;BME280;69636;52.372;13.610;2023-11-21T02:59:54;100738.84;;;5.39;100.00
80323;BME280;69636;52.372;13.610;2023-11-21T03:02:21;100739.53;;;5.30;100.00
80323;BME280;69636;52.372;13.610;2023-11-21T03:04:49;100740.97;;;5.34;100.00
80323;BME280;69636;52.372;13.610;2023-11-21T03:07:17;100738.69;;;5.30;100.00
80323;BME280;69636;52.372;13.610;2023-11-21T03:09:44;100742.19;;;5.19;100.00
80323;BME280;69636;52.372;13.610;2023-11-21T03:12:11;100745.78;;;5.18;100.00
80323;BME280;69636;52.372;13.610;2023-11-21T03:14:40;100743.00;;;5.31;100.00
80323;BME280;69636;52.372;13.610;2023-11-21T03:17:07;100746.94;;;5.25;100.00
80323;BME280;69636;52.372;13.610;2023-11-21T03:19:35;100746.72;;;5.17;100.00
80323;BME280;69636;52.372;13.610;2023-11-21T03:22:02;100749.25;;;5.19;100.00
80323;BME280;69636;52.372;13.610;2023-11-21T03:24:30;100753.66;;;5.07;100.00
80323;BME280;69636;52.372;13.610;2023-11-21T03:26:57;100747.66;;;5.05;100.00
80323;BME280;69636;52.372;13.610;2023-11-21T03:29:26;100757.94;;;4.97;100.00
80323;BME280;69636;52.372;13.610;2023-11-21T03:31:55;100759.00;;;4.94;100.00
80323;BME280;69636;52.372;13.610;2023-11-21T03:34:23;100759.25;;;4.91;100.00
80323;BME280;69636;52.372;13.610;2023-11-21T03:36:51;100765.09;;;4.95;100.00
80323;BME280;69636;52.372;13.610;2023-11-21T03:39:19;100768.56;;;4.84;100.00
80323;BME280;69636;52.372;13.610;2023-11-21T03:41:47;100776.09;;;4.89;100.00
80323;BME280;69636;52.372;13.610;2023-11-21T03:44:14;100777.75;;;4.78;100.00
80323;BME280;69636;52.372;13.610;2023-11-21T03:46:42;100777.91;;;4.88;100.00
80323;BME280;69636;52.372;13.610;2023-11-21T03:49:10;100776.47;;;4.95;100.00
80323;BME280;69636;52.372;13.610;2023-11-21T03:51:37;100783.66;;;4.93;100.00
80323;BME280;69636;52.372;13.610;2023-11-21T03:54:05;100785.06;;;4.97;100.00
80323;BME280;69636;52.372;13.610;2023-11-21T03:56:33;100790.09;;;4.89;100.00
80323;BME280;69636;52.372;13.610;2023-11-21T03:59:00;100797.59;;;4.83;100.00
80323;BME280;69636;52.372;13.610;2023-11-21T04:01:27;100799.72;;;4.77;100.00
80323;BME280;69636;52.372;13.610;2023-11-21T04:03:54;100799.72;;;4.77;100.00
80323;BME280;69636;52.372;13.610;2023-11-21T04:06:23;100801.63;;;4.75;100.00
80323;BME280;69636;52.372;13.610;2023-11-21T04:08:50;100812.59;;;4.69;100.00
80323;BME280;69636;52.372;13.610;2023-11-21T04:11:18;100808.56;;;4.76;100.00
80323;BME280;69636;52.372;13.610;2023-11-21T04:13:45;100802.38;;;4.77;100.00
80323;BME280;69636;52.372;13.610;2023-11-21T04:16:13;100806.44;;;4.82;100.00
80323;BME280;69636;52.372;13.610;2023-11-21T04:18:40;100815.44;;;4.55;100.00
80323;BME280;69636;52.372;13.610;2023-11-21T04:21:08;100811.31;;;4.40;100.00
80323;BME280;69636;52.372;13.610;2023-11-21T04:23:37;100814.16;;;4.37;100.00
80323;BME280;69636;52.372;13.610;2023-11-21T04:26:04;100815.50;;;4.42;100.00
80323;BME280;69636;52.372;13.610;2023-11-21T04:28:31;100821.84;;;4.40;100.00
80323;BME280;69636;52.372;13.610;2023-11-21T04:30:59;100823.94;;;4.35;100.00
80323;BME280;69636;52.372;13.610;2023-11-21T04:33:26;100821.69;;;4.18;100.00
80323;BME280;69636;52.372;13.610;2023-11-21T04:35:53;100830.88;;;4.12;100.00
80323;BME280;69636;52.372;13.610;2023-11-21T04:38:21;100834.34;;;4.13;100.00
80323;BME280;69636;52.372;13.610;2023-11-21T04:40:49;100842.88;;;4.03;100.00
80323;BME280;69636;52.372;13.610;2023-11-21T04:43:17;100852.72;;;4.13;100.00
80323;BME280;69636;52.372;13.610;2023-11-21T04:45:44;100848.84;;;4.05;100.00
80323;BME280;69636;52.372;13.610;2023-11-21T04:48:12;100857.25;;;4.11;100.00
80323;BME280;69636;52.372;13.610;2023-11-21T04:50:39;100855.06;;;4.04;100.00
80323;BME280;69636;52.372;13.610;2023-11-21T04:53:06;100860.19;;;4.06;100.00
80323;BME280;69636;52.372;13.610;2023-11-21T04:55:34;100866.63;;;4.02;100.00
80323;BME280;69636;52.372;13.610;2023-11-21T04:58:02;100857.59;;;3.93;100.00
80323;BME280;69636;52.372;13.610;2023-11-21T05:00:30;100856.16;;;3.89;100.00
80323;BME280;69636;52.372;13.610;2023-11-21T05:02:57;100873.06;;;3.85;100.00
80323;BME280;69636;52.372;13.610;2023-11-21T05:05:25;100877.59;;;3.83;100.00
80323;BME280;69636;52.372;13.610;2023-11-21T05:07:52;100869.41;;;3.75;100.00
80323;BME280;69636;52.372;13.610;2023-11-21T05:10:19;100872.22;;;3.72;100.00
80323;BME280;69636;52.372;13.610;2023-11-21T05:12:47;100874.84;;;3.72;100.00
80323;BME280;69636;52.372;13.610;2023-11-21T05:15:16;100877.28;;;3.75;100.00
80323;BME280;69636;52.372;13.610;2023-11-21T05:17:44;100882.94;;;3.69;100.00
80323;BME280;69636;52.372;13.610;2023-11-21T05:20:12;100890.59;;;3.72;100.00
80323;BME280;69636;52.372;13.610;2023-11-21T05:22:40;100887.13;;;3.71;100.00
80323;BME280;69636;52.372;13.610;2023-11-21T05:25:08;100896.38;;;3.77;100.00
80323;BME280;69636;52.372;13.610;2023-11-21T05:27:35;100900.59;;;3.67;100.00
80323;BME280;69636;52.372;13.610;2023-11-21T05:30:04;100895.13;;;3.70;100.00
80323;BME280;69636;52.372;13.610;2023-11-21T05:32:33;100904.38;;;3.63;100.00
80323;BME280;69636;52.372;13.610;2023-11-21T05:35:01;100903.66;;;3.61;100.00
80323;BME280;69636;52.372;13.610;2023-11-21T05:37:28;100903.63;;;3.73;100.00
80323;BME280;69636;52.372;13.610;2023-11-21T05:39:56;100916.53;;;3.64;100.00
80323;BME280;69636;52.372;13.610;2023-11-21T05:42:23;100915.31;;;3.57;100.00
80323;BME280;69636;52.372;13.610;2023-11-21T05:44:50;100917.81;;;3.58;100.00
80323;BME280;69636;52.372;13.610;2023-11-21T05:47:18;100915.91;;;3.48;100.00
80323;BME280;69636;52.372;13.610;2023-11-21T05:49:47;100929.78;;;3.50;100.00
80323;BME280;69636;52.372;13.610;2023-11-21T05:52:14;100932.28;;;3.64;100.00
80323;BME280;69636;52.372;13.610;2023-11-21T05:54:42;100935.16;;;3.61;100.00
80323;BME280;69636;52.372;13.610;2023-11-21T05:57:09;100934.72;;;3.54;100.00
80323;BME280;69636;52.372;13.610;2023-11-21T05:59:36;100941.97;;;3.76;100.00
80323;BME280;69636;52.372;13.610;2023-11-21T06:02:03;100940.50;;;3.72;100.00
80323;BME280;69636;52.372;13.610;2023-11-21T06:04:31;100945.31;;;3.65;100.00
80323;BME280;69636;52.372;13.610;2023-11-21T06:07:00;100943.97;;;3.60;100.00
80323;BME280;69636;52.372;13.610;2023-11-21T06:09:27;100943.63;;;3.64;100.00
80323;BME280;69636;52.372;13.610;2023-11-21T06:11:54;100949.22;;;3.60;100.00
80323;BME280;69636;52.372;13.610;2023-11-21T06:14:21;100956.75;;;3.52;100.00
80323;BME280;69636;52.372;13.610;2023-11-21T06:16:49;100955.63;;;3.81;100.00
80323;BME280;69636;52.372;13.610;2023-11-21T06:19:16;100956.66;;;3.66;100.00
80323;BME280;69636;52.372;13.610;2023-11-21T06:21:45;100955.22;;;3.62;100.00
80323;BME280;69636;52.372;13.610;2023-11-21T06:24:14;100968.22;;;3.63;100.00
80323;BME280;69636;52.372;13.610;2023-11-21T06:26:41;100971.34;;;3.68;100.00
80323;BME280;69636;52.372;13.610;2023-11-21T06:29:08;100979.53;;;3.64;100.00
80323;BME280;69636;52.372;13.610;2023-11-21T06:31:36;100981.97;;;3.67;100.00
80323;BME280;69636;52.372;13.610;2023-11-21T06:34:03;100982.31;;;3.62;100.00
80323;BME280;69636;52.372;13.610;2023-11-21T06:36:31;100985.66;;;3.77;100.00
80323;BME280;69636;52.372;13.610;2023-11-21T06:38:58;100993.22;;;3.82;100.00
80323;BME280;69636;52.372;13.610;2023-11-21T06:41:26;100991.13;;;3.74;100.00
80323;BME280;69636;52.372;13.610;2023-11-21T06:43:54;101001.53;;;4.01;100.00
80323;BME280;69636;52.372;13.610;2023-11-21T06:46:21;101008.56;;;4.00;100.00
80323;BME280;69636;52.372;13.610;2023-11-21T06:48:49;101003.94;;;4.04;100.00
80323;BME280;69636;52.372;13.610;2023-11-21T06:51:16;101005.59;;;3.92;100.00
80323;BME280;69636;52.372;13.610;2023-11-21T06:53:43;101016.56;;;3.86;100.00
80323;BME280;69636;52.372;13.610;2023-11-21T06:56:15;101009.72;;;3.84;100.00
80323;BME280;69636;52.372;13.610;2023-11-21T06:58:45;101008.88;;;3.83;100.00
80323;BME280;69636;52.372;13.610;2023-11-21T07:01:12;101016.34;;;3.89;100.00
80323;BME280;69636;52.372;13.610;2023-11-21T07:03:40;101023.91;;;3.81;100.00
80323;BME280;69636;52.372;13.610;2023-11-21T07:06:08;101034.72;;;3.77;100.00
80323;BME280;69636;52.372;13.610;2023-11-21T07:08:35;101026.84;;;3.89;100.00
80323;BME280;69636;52.372;13.610;2023-11-21T07:11:03;101028.22;;;3.82;100.00
80323;BME280;69636;52.372;13.610;2023-11-21T07:13:30;101031.78;;;3.94;100.00
80323;BME280;69636;52.372;13.610;2023-11-21T07:15:59;101038.41;;;4.12;100.00
80323;BME280;69636;52.372;13.610;2023-11-21T07:18:27;101041.97;;;3.98;100.00
80323;BME280;69636;52.372;13.610;2023-11-21T07:20:54;101040.09;;;4.00;100.00
80323;BME280;69636;52.372;13.610;2023-11-21T07:23:21;101044.59;;;3.98;100.00
80323;BME280;69636;52.372;13.610;2023-11-21T07:25:49;101051.00;;;3.94;100.00
80323;BME280;69636;52.372;13.610;2023-11-21T07:28:16;101051.22;;;4.04;100.00
80323;BME280;69636;52.372;13.610;2023-11-21T07:30:43;101055.50;;;3.92;100.00
80323;BME280;69636;52.372;13.610;2023-11-21T07:33:12;101053.97;;;3.90;100.00
80323;BME280;69636;52.372;13.610;2023-11-21T07:35:39;101060.25;;;3.87;100.00
80323;BME280;69636;52.372;13.610;2023-11-21T07:38:07;101060.25;;;4.00;100.00
80323;BME280;69636;52.372;13.610;2023-11-21T07:40:34;101056.78;;;4.25;100.00
80323;BME280;69636;52.372;13.610;2023-11-21T07:43:01;101060.28;;;4.38;100.00
80323;BME280;69636;52.372;13.610;2023-11-21T07:45:29;101059.75;;;4.07;100.00
80323;BME280;69636;52.372;13.610;2023-11-21T07:47:56;101059.75;;;4.07;100.00
80323;BME280;69636;52.372;13.610;2023-11-21T07:50:25;101067.84;;;4.04;100.00
80323;BME280;69636;52.372;13.610;2023-11-21T07:52:52;101070.25;;;4.33;100.00
80323;BME280;69636;52.372;13.610;2023-11-21T07:55:20;101073.91;;;4.43;100.00
80323;BME280;69636;52.372;13.610;2023-11-21T07:57:47;101071.81;;;4.23;100.00
80323;BME280;69636;52.372;13.610;2023-11-21T08:00:15;101077.16;;;3.96;100.00
80323;BME280;69636;52.372;13.610;2023-11-21T08:02:42;101074.13;;;3.89;100.00
80323;BME280;69636;52.372;13.610;2023-11-21T08:05:10;101076.00;;;3.87;100.00
80323;BME280;69636;52.372;13.610;2023-11-21T08:07:51;101080.81;;;3.81;100.00
80323;BME280;69636;52.372;13.610;2023-11-21T08:10:19;101087.97;;;3.91;100.00
80323;BME280;69636;52.372;13.610;2023-11-21T08:12:46;101090.50;;;3.80;100.00
80323;BME280;69636;52.372;13.610;2023-11-21T08:15:14;101095.94;;;3.77;100.00
80323;BME280;69636;52.372;13.610;2023-11-21T08:17:41;101093.75;;;3.84;100.00
80323;BME280;69636;52.372;13.610;2023-11-21T08:20:10;101092.38;;;3.78;100.00
80323;BME280;69636;52.372;13.610;2023-11-21T08:22:37;101100.25;;;3.78;100.00
80323;BME280;69636;52.372;13.610;2023-11-21T08:25:07;101107.81;;;3.83;100.00
80323;BME280;69636;52.372;13.610;2023-11-21T08:27:34;101105.66;;;3.89;100.00
80323;BME280;69636;52.372;13.610;2023-11-21T08:30:02;101109.72;;;3.93;100.00
80323;BME280;69636;52.372;13.610;2023-11-21T08:32:29;101110.31;;;4.24;100.00
80323;BME280;69636;52.372;13.610;2023-11-21T08:34:57;101118.25;;;3.97;100.00
80323;BME280;69636;52.372;13.610;2023-11-21T08:37:25;101111.41;;;3.94;100.00
80323;BME280;69636;52.372;13.610;2023-11-21T08:39:52;101108.88;;;3.80;100.00
80323;BME280;69636;52.372;13.610;2023-11-21T08:42:21;101113.97;;;3.69;100.00
80323;BME280;69636;52.372;13.610;2023-11-21T08:44:48;101117.34;;;3.71;100.00
80323;BME280;69636;52.372;13.610;2023-11-21T08:47:16;101118.19;;;3.71;100.00
80323;BME280;69636;52.372;13.610;2023-11-21T08:49:43;101123.03;;;3.78;100.00
80323;BME280;69636;52.372;13.610;2023-11-21T08:52:11;101120.22;;;3.54;100.00
80323;BME280;69636;52.372;13.610;2023-11-21T08:54:39;101128.59;;;3.46;100.00
80323;BME280;69636;52.372;13.610;2023-11-21T08:57:06;101129.81;;;3.40;100.00
80323;BME280;69636;52.372;13.610;2023-11-21T08:59:35;101133.38;;;3.66;100.00
80323;BME280;69636;52.372;13.610;2023-11-21T09:02:02;101133.81;;;3.60;100.00
80323;BME280;69636;52.372;13.610;2023-11-21T09:04:29;101142.25;;;3.78;100.00
80323;BME280;69636;52.372;13.610;2023-11-21T09:06:57;101147.41;;;3.80;100.00
80323;BME280;69636;52.372;13.610;2023-11-21T09:09:24;101146.50;;;3.66;100.00
80323;BME280;69636;52.372;13.610;2023-11-21T09:11:51;101153.13;;;3.86;100.00
80323;BME280;69636;52.372;13.610;2023-11-21T09:14:19;101158.75;;;3.53;100.00
80323;BME280;69636;52.372;13.610;2023-11-21T09:16:47;101161.09;;;3.58;100.00
80323;BME280;69636;52.372;13.610;2023-11-21T09:19:15;101171.25;;;3.50;100.00
80323;BME280;69636;52.372;13.610;2023-11-21T09:21:42;101178.47;;;3.46;100.00
80323;BME280;69636;52.372;13.610;2023-11-21T09:24:09;101177.59;;;3.87;100.00
80323;BME280;69636;52.372;13.610;2023-11-21T09:26:37;101188.59;;;3.79;100.00
80323;BME280;69636;52.372;13.610;2023-11-21T09:29:04;101183.72;;;3.73;100.00
80323;BME280;69636;52.372;13.610;2023-11-21T09:31:31;101188.00;;;3.61;100.00
80323;BME280;69636;52.372;13.610;2023-11-21T09:34:00;101183.13;;;3.55;100.00
80323;BME280;69636;52.372;13.610;2023-11-21T09:36:27;101186.41;;;3.59;100.00
80323;BME280;69636;52.372;13.610;2023-11-21T09:38:55;101188.84;;;3.89;100.00
80323;BME280;69636;52.372;13.610;2023-11-21T09:41:27;101193.28;;;3.74;100.00
80323;BME280;69636;52.372;13.610;2023-11-21T09:44:01;101193.44;;;3.58;100.00
80323;BME280;69636;52.372;13.610;2023-11-21T09:46:29;101196.50;;;3.65;100.00
80323;BME280;69636;52.372;13.610;2023-11-21T09:49:01;101189.31;;;3.54;100.00
80323;BME280;69636;52.372;13.610;2023-11-21T09:51:29;101196.50;;;3.65;100.00
80323;BME280;69636;52.372;13.610;2023-11-21T09:53:59;101194.31;;;3.71;100.00
80323;BME280;69636;52.372;13.610;2023-11-21T09:56:28;101200.13;;;3.77;100.00
80323;BME280;69636;52.372;13.610;2023-11-21T09:58:56;101209.78;;;3.76;100.00
80323;BME280;69636;52.372;13.610;2023-11-21T10:01:23;101207.25;;;3.74;100.00
80323;BME280;69636;52.372;13.610;2023-11-21T10:03:52;101219.19;;;3.66;100.00
80323;BME280;69636;52.372;13.610;2023-11-21T10:06:21;101213.53;;;3.86;100.00
80323;BME280;69636;52.372;13.610;2023-11-21T10:08:49;101221.88;;;3.79;100.00
80323;BME280;69636;52.372;13.610;2023-11-21T10:11:23;101218.16;;;3.68;100.00
80323;BME280;69636;52.372;13.610;2023-11-21T10:13:53;101216.47;;;3.67;100.00
80323;BME280;69636;52.372;13.610;2023-11-21T10:16:22;101223.66;;;3.78;100.00
80323;BME280;69636;52.372;13.610;2023-11-21T10:18:52;101213.41;;;3.61;100.00
80323;BME280;69636;52.372;13.610;2023-11-21T10:21:21;101221.56;;;3.56;100.00
80323;BME280;69636;52.372;13.610;2023-11-21T10:23:48;101217.16;;;3.57;100.00
80323;BME280;69636;52.372;13.610;2023-11-21T10:26:17;101214.78;;;3.66;100.00
80323;BME280;69636;52.372;13.610;2023-11-21T10:28:57;101222.78;;;3.51;100.00
80323;BME280;69636;52.372;13.610;2023-11-21T10:31:26;101224.22;;;3.83;100.00
80323;BME280;69636;52.372;13.610;2023-11-21T10:33:54;101235.22;;;3.75;100.00
80323;BME280;69636;52.372;13.610;2023-11-21T10:36:28;101230.91;;;3.74;100.00
80323;BME280;69636;52.372;13.610;2023-11-21T10:38:56;101236.53;;;3.95;100.00
80323;BME280;69636;52.372;13.610;2023-11-21T10:41:23;101234.19;;;4.05;100.00
80323;BME280;69636;52.372;13.610;2023-11-21T10:43:53;101238.19;;;3.84;100.00
80323;BME280;69636;52.372;13.610;2023-11-21T10:46:21;101240.91;;;3.82;100.00
80323;BME280;69636;52.372;13.610;2023-11-21T10:48:52;101238.44;;;3.93;100.00
80323;BME280;69636;52.372;13.610;2023-11-21T10:51:20;101243.59;;;3.95;100.00
80323;BME280;69636;52.372;13.610;2023-11-21T10:53:49;101241.03;;;4.20;100.00
80323;BME280;69636;52.372;13.610;2023-11-21T10:56:18;101243.56;;;4.22;100.00
80323;BME280;69636;52.372;13.610;2023-11-21T10:58:46;101244.81;;;4.16;100.00
80323;BME280;69636;52.372;13.610;2023-11-21T11:01:15;101245.47;;;4.20;100.00
80323;BME280;69636;52.372;13.610;2023-11-21T11:03:44;101244.72;;;4.18;100.00
80323;BME280;69636;52.372;13.610;2023-11-21T11:06:12;101240.97;;;3.95;100.00
80323;BME280;69636;52.372;13.610;2023-11-21T11:08:40;101244.19;;;4.13;100.00
80323;BME280;69636;52.372;13.610;2023-11-21T11:11:09;101257.53;;;4.09;100.00
80323;BME280;69636;52.372;13.610;2023-11-21T11:13:37;101266.00;;;4.00;100.00
80323;BME280;69636;52.372;13.610;2023-11-21T11:16:06;101265.59;;;3.80;100.00
80323;BME280;69636;52.372;13.610;2023-11-21T11:18:33;101268.81;;;3.56;100.00
80323;BME280;69636;52.372;13.610;2023-11-21T11:21:07;101272.84;;;3.62;100.00
80323;BME280;69636;52.372;13.610;2023-11-21T11:23:49;101268.59;;;3.73;100.00
80323;BME280;69636;52.372;13.610;2023-11-21T11:26:29;101265.22;;;4.13;100.00
80323;BME280;69636;52.372;13.610;2023-11-21T11:29:04;101277.31;;;3.88;100.00
80323;BME280;69636;52.372;13.610;2023-11-21T11:31:40;101280.22;;;3.84;100.00
80323;BME280;69636;52.372;13.610;2023-11-21T11:34:19;101277.50;;;3.85;100.00
80323;BME280;69636;52.372;13.610;2023-11-21T11:36:55;101291.38;;;3.73;100.00
80323;BME280;69636;52.372;13.610;2023-11-21T11:39:26;101293.44;;;3.68;100.00
80323;BME280;69636;52.372;13.610;2023-11-21T11:41:55;101291.94;;;3.64;100.00
80323;BME280;69636;52.372;13.610;2023-11-21T11:47:31;101305.28;;;3.61;100.00
80323;BME280;69636;52.372;13.610;2023-11-21T11:50:01;101305.19;;;3.62;100.00
80323;BME280;69636;52.372;13.610;2023-11-21T11:52:39;101307.81;;;3.48;100.00
80323;BME280;69636;52.372;13.610;2023-11-21T11:55:08;101317.31;;;3.36;100.00
80323;BME280;69636;52.372;13.610;2023-11-21T11:57:38;101320.94;;;3.34;100.00
80323;BME280;69636;52.372;13.610;2023-11-21T12:00:10;101321.03;;;3.32;100.00
80323;BME280;69636;52.372;13.610;2023-11-21T12:02:38;101326.25;;;3.18;100.00
80323;BME280;69636;52.372;13.610;2023-11-21T12:05:09;101324.69;;;3.44;100.00
80323;BME280;69636;52.372;13.610;2023-11-21T12:07:44;101334.25;;;3.45;100.00
80323;BME280;69636;52.372;13.610;2023-11-21T12:10:13;101339.97;;;3.52;100.00
80323;BME280;69636;52.372;13.610;2023-11-21T12:12:45;101339.00;;;3.38;100.00
80323;BME280;69636;52.372;13.610;2023-11-21T12:15:13;101338.09;;;3.25;100.00
80323;BME280;69636;52.372;13.610;2023-11-21T12:17:41;101350.75;;;3.33;100.00
80323;BME280;69636;52.372;13.610;2023-11-21T12:20:10;101354.66;;;3.12;100.00
80323;BME280;69636;52.372;13.610;2023-11-21T12:22:38;101357.66;;;3.20;100.00
80323;BME280;69636;52.372;13.610;2023-11-21T12:25:06;101359.84;;;3.27;100.00
80323;BME280;69636;52.372;13.610;2023-11-21T12:27:33;101370.84;;;3.04;100.00
80323;BME280;69636;52.372;13.610;2023-11-21T12:30:02;101378.03;;;3.00;100.00
80323;BME280;69636;52.372;13.610;2023-11-21T12:32:30;101378.03;;;3.00;100.00
80323;BME280;69636;52.372;13.610;2023-11-21T12:34:57;101381.50;;;3.01;100.00
80323;BME280;69636;52.372;13.610;2023-11-21T12:37:25;101390.53;;;3.11;100.00
80323;BME280;69636;52.372;13.610;2023-11-21T12:39:52;101385.91;;;3.45;100.00
80323;BME280;69636;52.372;13.610;2023-11-21T12:42:19;101389.31;;;3.61;100.00
80323;BME280;69636;52.372;13.610;2023-11-21T12:44:47;101389.44;;;3.29;100.00
80323;BME280;69636;52.372;13.610;2023-11-21T12:47:18;101393.00;;;3.28;100.00